KFZG

Fitzgerald Municipal Airport

Fitzgerald, Georgia, USA
METAR KFZG 181235Z AUTO 33003KT 10SM CLR 05/04 A3013 RMK AO2 T00520036 PWINO
Observed Flight Rules
Dec-18 @ 12:35 UTC (33 minutes ago) Visual Flight Rules
Wind Visibility Clouds
330° at 3 knots 10 miles
  • Clear skies
Temperatures Readings
Current 5°C / 41°F
Dewpoint 4°C / 39°F
Humidity 93%
Altimeter 30.13" Hg
Pressure 1020 hPa
Elevation 111
METAR KFZG 181235Z AUTO 33003KT 10SM CLR 05/04 A3013 RMK AO2 T00520036 PWINO
Observed Flight Rules
Dec-18 @ 12:35 UTC
(33 minutes ago)
VFR
Wind Visibility
330° at 3 knots 10 miles
Clouds
  • Clear skies
Temperature Dewpoint
5°C / 41°F 4°C / 39°F
Humidity Altimeter Pressure
93% 30.13" Hg 1020 hPa